Time;durP1;ratioP1;P1;durP2;ratioP2;P2;SDS_P1;SDS_P2;PMS_P1;PMS_P2;Temp;Humidity;BMP_temperature;BMP_pressure;BME280_temperature;BME280_humidity;BME280_pressure;Samples;Min_cycle;Max_cycle;Signal;HPM_P1;HPM_P2
2022/07/31 00:01:34;;;;;;;5.50;2.03;;;22.10;99.90;;;;;;5136823;27;20187;-47
2022/07/31 00:03:59;;;;;;;2.15;1.75;;;22.10;99.90;;;;;;5136755;27;20172;-46
2022/07/31 00:06:25;;;;;;;2.90;2.13;;;22.10;99.90;;;;;;5136790;27;20170;-45
2022/07/31 00:08:51;;;;;;;2.33;2.13;;;22.10;99.90;;;;;;5136709;27;20172;-44
2022/07/31 00:11:16;;;;;;;4.20;2.60;;;22.00;99.90;;;;;;5136675;27;20238;-45
2022/07/31 00:13:42;;;;;;;4.03;2.50;;;22.10;99.90;;;;;;5136675;27;20519;-44
2022/07/31 00:16:08;;;;;;;2.67;1.98;;;22.00;99.90;;;;;;5136890;27;20163;-45
2022/07/31 00:18:34;;;;;;;4.72;2.80;;;22.00;99.90;;;;;;5136523;27;20734;-44
2022/07/31 00:21:01;;;;;;;3.80;2.50;;;22.00;99.90;;;;;;5136824;27;20177;-51
2022/07/31 00:23:29;;;;;;;5.32;2.60;;;22.00;99.90;;;;;;5136725;27;20168;-50
2022/07/31 00:25:55;;;;;;;4.72;2.58;;;22.00;99.90;;;;;;5136379;27;20167;-46
2022/07/31 00:28:21;;;;;;;4.55;2.55;;;22.00;99.90;;;;;;5136714;27;20478;-49
2022/07/31 00:30:47;;;;;;;6.28;2.55;;;21.90;99.90;;;;;;5136310;27;20263;-50
2022/07/31 00:33:13;;;;;;;4.47;2.28;;;21.90;99.90;;;;;;5136245;27;20164;-52
2022/07/31 00:35:38;;;;;;;2.50;2.30;;;21.90;99.90;;;;;;5136581;27;20667;-51
2022/07/31 00:38:04;;;;;;;4.00;2.50;;;21.80;99.90;;;;;;5136074;27;20223;-51
2022/07/31 00:40:30;;;;;;;2.67;2.15;;;21.80;99.90;;;;;;5136133;27;20192;-50
2022/07/31 00:42:55;;;;;;;3.30;2.50;;;21.80;99.90;;;;;;5136050;27;20164;-51
2022/07/31 00:45:21;;;;;;;2.88;2.58;;;21.80;99.90;;;;;;5136105;27;20207;-50
2022/07/31 00:47:46;;;;;;;3.80;2.63;;;21.70;99.90;;;;;;5136003;27;20167;-51
2022/07/31 00:50:12;;;;;;;5.10;2.28;;;21.70;99.90;;;;;;5136228;27;20168;-50
2022/07/31 00:52:38;;;;;;;2.97;2.40;;;21.80;99.90;;;;;;5136349;27;20213;-51
2022/07/31 00:55:04;;;;;;;3.08;2.20;;;21.80;99.90;;;;;;5136128;27;20654;-51
2022/07/31 00:57:30;;;;;;;3.13;2.30;;;21.70;99.90;;;;;;5135999;27;20537;-51
2022/07/31 00:59:55;;;;;;;4.25;2.55;;;21.60;99.90;;;;;;5134644;27;20176;-49
2022/07/31 01:02:21;;;;;;;3.63;2.78;;;21.60;99.90;;;;;;5135983;27;20172;-50
2022/07/31 01:04:47;;;;;;;4.53;2.50;;;21.60;99.90;;;;;;5135643;27;20164;-51
2022/07/31 01:07:12;;;;;;;4.35;2.60;;;21.50;99.90;;;;;;5135622;27;20164;-50
2022/07/31 01:09:38;;;;;;;3.30;2.25;;;21.50;99.90;;;;;;5135925;27;20160;-51
2022/07/31 01:12:32;;;;;;;2.90;2.20;;;21.50;99.90;;;;;;5135517;27;20558;-50
2022/07/31 01:15:06;;;;;;;4.90;2.70;;;21.50;99.90;;;;;;5135468;27;20156;-51
2022/07/31 01:17:33;;;;;;;2.85;2.40;;;21.50;99.90;;;;;;5135621;27;20176;-51
2022/07/31 01:19:59;;;;;;;2.92;2.38;;;21.40;99.90;;;;;;5135377;27;20176;-49
2022/07/31 01:23:16;;;;;;;2.33;2.13;;;21.40;99.90;;;;;;5135340;27;20176;-49
2022/07/31 01:25:53;;;;;;;4.05;2.38;;;21.40;99.90;;;;;;5135576;27;20168;-49
2022/07/31 01:28:52;;;;;;;3.97;2.42;;;21.40;99.90;;;;;;5135241;27;20237;-51
2022/07/31 01:31:28;;;;;;;5.45;2.60;;;21.40;99.90;;;;;;5135390;27;20168;-51
2022/07/31 01:34:26;;;;;;;4.55;2.95;;;21.30;99.90;;;;;;5135142;27;20223;-50
2022/07/31 01:37:07;;;;;;;4.07;2.40;;;21.40;99.90;;;;;;5127592;27;20211;-48
2022/07/31 01:39:35;;;;;;;3.38;2.83;;;21.40;99.90;;;;;;5134863;27;20254;-51
2022/07/31 01:42:05;;;;;;;5.35;2.90;;;21.30;99.90;;;;;;5135200;27;20255;-49
2022/07/31 01:44:39;;;;;;;3.22;2.53;;;21.30;99.90;;;;;;5134896;27;20251;-51
2022/07/31 01:47:06;;;;;;;5.18;3.30;;;21.30;99.90;;;;;;5134903;27;20167;-51
2022/07/31 01:49:33;;;;;;;4.82;2.90;;;21.30;99.90;;;;;;5134715;27;20616;-51
2022/07/31 01:51:59;;;;;;;4.50;2.63;;;21.30;99.90;;;;;;5134809;27;20168;-49
2022/07/31 01:54:27;;;;;;;2.70;2.40;;;21.30;99.90;;;;;;5134748;27;20252;-50
2022/07/31 01:56:55;;;;;;;3.00;2.47;;;21.20;99.90;;;;;;5134855;27;20262;-51
2022/07/31 01:59:22;;;;;;;4.25;2.70;;;21.20;99.90;;;;;;5134505;27;20199;-50
2022/07/31 02:01:50;;;;;;;3.58;2.40;;;21.20;99.90;;;;;;5134590;27;20214;-48
2022/07/31 02:04:18;;;;;;;5.65;3.40;;;21.20;99.90;;;;;;5116218;27;20164;-44
2022/07/31 02:06:46;;;;;;;5.55;2.72;;;21.20;99.90;;;;;;5134595;27;20905;-44
2022/07/31 02:09:13;;;;;;;3.17;2.67;;;21.10;99.90;;;;;;5134481;27;20623;-44
2022/07/31 02:11:40;;;;;;;8.27;3.00;;;21.10;99.90;;;;;;5134138;27;20294;-47
2022/07/31 02:14:07;;;;;;;3.72;2.78;;;21.10;99.90;;;;;;5134590;27;20172;-46
2022/07/31 02:16:36;;;;;;;3.38;2.53;;;21.10;99.90;;;;;;5134532;27;20259;-47
2022/07/31 02:19:04;;;;;;;4.30;2.60;;;20.10;99.90;;;;;;5134314;27;20219;-45
2022/07/31 02:21:30;;;;;;;3.03;2.60;;;21.00;99.90;;;;;;5134127;27;20243;-45
2022/07/31 02:23:56;;;;;;;8.07;3.38;;;21.00;99.90;;;;;;5134095;27;20608;-46
2022/07/31 02:26:24;;;;;;;4.65;2.83;;;21.00;99.90;;;;;;5133987;27;20196;-49
2022/07/31 02:28:51;;;;;;;4.75;3.20;;;21.00;99.90;;;;;;5134533;27;20276;-47
2022/07/31 02:31:18;;;;;;;5.00;3.17;;;20.90;99.90;;;;;;5134158;27;20164;-47
2022/07/31 02:33:46;;;;;;;4.38;3.05;;;20.90;99.90;;;;;;5133932;27;20348;-46
2022/07/31 02:36:13;;;;;;;6.18;3.53;;;20.90;99.90;;;;;;5133886;27;20159;-49
2022/07/31 02:38:40;;;;;;;5.35;3.00;;;20.90;99.90;;;;;;5134146;27;20286;-47
2022/07/31 02:41:08;;;;;;;5.00;2.72;;;20.80;99.90;;;;;;5134150;27;20160;-46
2022/07/31 02:43:35;;;;;;;4.15;2.90;;;20.80;99.90;;;;;;5133704;27;20168;-48
2022/07/31 02:46:01;;;;;;;5.95;3.13;;;20.70;99.90;;;;;;5133714;27;20751;-45
2022/07/31 02:48:28;;;;;;;3.17;2.55;;;20.70;99.90;;;;;;5133770;27;20168;-45
2022/07/31 02:50:54;;;;;;;5.80;2.72;;;20.70;99.90;;;;;;5133604;27;20257;-45
2022/07/31 02:53:20;;;;;;;4.65;2.83;;;20.70;99.90;;;;;;5133600;27;20156;-45
2022/07/31 02:55:46;;;;;;;4.40;2.72;;;20.60;99.90;;;;;;5133460;27;20175;-45
2022/07/31 02:58:13;;;;;;;4.22;2.50;;;20.60;99.90;;;;;;5133388;27;20287;-47
2022/07/31 03:00:38;;;;;;;3.42;2.65;;;20.70;99.90;;;;;;5134012;27;20175;-45
2022/07/31 03:03:04;;;;;;;3.05;2.58;;;20.70;99.90;;;;;;5133400;27;20168;-45
2022/07/31 03:05:30;;;;;;;9.55;2.92;;;20.70;99.90;;;;;;5133495;27;20172;-47
2022/07/31 03:07:55;;;;;;;9.98;3.10;;;20.70;99.90;;;;;;5133539;27;20636;-47
2022/07/31 03:10:21;;;;;;;6.50;2.65;;;20.70;99.90;;;;;;5133285;27;20176;-45
2022/07/31 03:12:51;;;;;;;3.95;2.60;;;20.70;99.90;;;;;;5133099;27;20222;-44
2022/07/31 03:15:19;;;;;;;6.38;2.60;;;20.70;99.90;;;;;;5133300;27;20171;-46
2022/07/31 03:17:47;;;;;;;4.03;2.58;;;20.70;99.90;;;;;;5114693;27;20160;-44
2022/07/31 03:20:14;;;;;;;3.05;2.50;;;20.70;99.90;;;;;;5114804;27;20172;-44
2022/07/31 03:22:42;;;;;;;5.78;4.15;;;20.70;99.90;;;;;;5132560;27;20179;-46
2022/07/31 03:25:08;;;;;;;4.03;2.60;;;20.80;99.90;;;;;;5133708;27;20171;-44
2022/07/31 03:27:34;;;;;;;4.25;2.50;;;20.80;99.90;;;;;;5133048;27;20168;-45
2022/07/31 03:30:00;;;;;;;3.00;2.70;;;20.80;99.90;;;;;;5133097;27;20171;-44
2022/07/31 03:32:25;;;;;;;4.15;2.88;;;20.80;99.90;;;;;;5133042;27;20167;-44
2022/07/31 03:34:51;;;;;;;3.30;2.83;;;20.80;99.90;;;;;;5132981;27;20511;-44
2022/07/31 03:37:16;;;;;;;6.75;2.85;;;20.80;99.90;;;;;;5114671;28;20164;-44
2022/07/31 03:39:42;;;;;;;4.57;2.55;;;20.80;99.90;;;;;;5132798;27;20208;-44
2022/07/31 03:42:09;;;;;;;3.30;2.45;;;20.70;99.90;;;;;;5133150;27;20226;-44
2022/07/31 03:44:36;;;;;;;3.13;2.47;;;20.80;99.90;;;;;;5132878;27;20168;-45
2022/07/31 03:47:02;;;;;;;2.97;2.30;;;20.70;99.90;;;;;;5132941;28;20236;-52
2022/07/31 03:49:30;;;;;;;3.45;2.33;;;20.70;99.90;;;;;;5132907;28;20585;-52
2022/07/31 03:51:55;;;;;;;4.30;2.67;;;20.70;99.90;;;;;;5132808;27;20168;-51
2022/07/31 03:54:21;;;;;;;3.55;2.30;;;20.80;99.90;;;;;;5132827;27;20171;-46
2022/07/31 03:56:48;;;;;;;3.53;2.55;;;20.70;99.90;;;;;;5132749;27;20251;-47
2022/07/31 03:59:15;;;;;;;3.78;2.25;;;20.80;99.90;;;;;;5132925;27;20218;-45
2022/07/31 04:01:42;;;;;;;2.58;2.20;;;20.80;99.90;;;;;;5132789;27;20160;-44
2022/07/31 04:04:08;;;;;;;3.75;2.20;;;20.80;99.90;;;;;;5132936;27;20571;-45
2022/07/31 04:06:33;;;;;;;7.60;2.20;;;20.80;99.90;;;;;;5132623;27;20164;-46
2022/07/31 04:09:02;;;;;;;1.98;1.73;;;20.80;99.90;;;;;;5132691;27;20184;-45
2022/07/31 04:11:28;;;;;;;5.53;2.20;;;20.80;99.90;;;;;;5132420;27;20219;-45
2022/07/31 04:13:53;;;;;;;3.72;2.10;;;20.80;99.90;;;;;;5132567;27;20172;-45
2022/07/31 04:16:19;;;;;;;4.63;1.73;;;20.80;99.90;;;;;;5114188;27;20175;-46
2022/07/31 04:18:45;;;;;;;2.28;2.08;;;20.80;99.90;;;;;;5132688;27;20248;-45
2022/07/31 04:21:10;;;;;;;2.63;2.15;;;20.80;99.90;;;;;;5132563;27;20530;-44
2022/07/31 04:23:36;;;;;;;3.30;2.15;;;20.70;99.90;;;;;;5132838;27;20160;-44
2022/07/31 04:26:20;;;;;;;1.80;1.70;;;20.70;99.90;;;;;;5132519;27;20174;-46
2022/07/31 04:28:46;;;;;;;2.10;1.60;;;20.70;99.90;;;;;;5132357;27;20164;-45
2022/07/31 04:31:12;;;;;;;2.22;1.90;;;20.70;99.90;;;;;;5132505;27;20172;-46
2022/07/31 04:33:37;;;;;;;3.70;2.03;;;20.70;99.90;;;;;;5133270;27;20168;-45
2022/07/31 04:36:03;;;;;;;2.70;1.70;;;20.70;99.90;;;;;;5136186;27;20638;-44
2022/07/31 04:38:29;;;;;;;2.00;1.80;;;20.70;99.90;;;;;;5136131;27;20244;-44
2022/07/31 04:40:54;;;;;;;4.07;2.08;;;20.70;99.90;;;;;;5136178;27;20171;-45
2022/07/31 04:43:20;;;;;;;2.75;1.90;;;20.70;99.90;;;;;;5136209;27;20622;-45
2022/07/31 04:45:45;;;;;;;4.10;2.30;;;20.80;99.90;;;;;;5136153;27;20171;-45
2022/07/31 04:48:11;;;;;;;2.17;1.77;;;20.80;99.90;;;;;;5135995;27;20176;-47
2022/07/31 04:50:36;;;;;;;2.55;1.90;;;20.80;99.90;;;;;;5136365;27;20250;-45
2022/07/31 04:53:03;;;;;;;1.77;1.67;;;20.80;99.90;;;;;;5135982;27;20201;-47
2022/07/31 04:55:28;;;;;;;2.63;1.58;;;20.80;99.90;;;;;;5135853;27;20199;-44
2022/07/31 04:57:54;;;;;;;4.70;2.00;;;20.80;99.90;;;;;;5135757;27;20362;-45
2022/07/31 05:00:19;;;;;;;4.90;1.90;;;20.80;99.90;;;;;;5135757;27;20172;-44
2022/07/31 05:02:45;;;;;;;6.03;2.00;;;20.80;99.90;;;;;;5135790;27;20654;-46
2022/07/31 05:05:11;;;;;;;3.75;1.92;;;20.90;99.90;;;;;;5135672;27;20166;-45
2022/07/31 05:07:37;;;;;;;1.92;1.70;;;20.90;99.90;;;;;;5135954;27;20160;-44
2022/07/31 05:10:03;;;;;;;2.20;1.90;;;20.80;99.90;;;;;;5135646;27;20622;-45
2022/07/31 05:12:29;;;;;;;2.10;1.90;;;20.80;99.90;;;;;;5135354;27;20211;-44
2022/07/31 05:14:54;;;;;;;2.28;1.83;;;20.90;99.90;;;;;;5135434;27;20210;-44
2022/07/31 05:17:20;;;;;;;4.30;1.90;;;20.90;99.90;;;;;;5135732;27;20164;-44
2022/07/31 05:19:46;;;;;;;3.50;1.95;;;20.90;99.90;;;;;;5135346;27;20222;-44
2022/07/31 05:22:11;;;;;;;4.75;1.90;;;21.00;99.90;;;;;;5135310;27;20160;-44
2022/07/31 05:24:38;;;;;;;3.35;2.05;;;20.90;99.90;;;;;;5135771;27;20164;-43
2022/07/31 05:27:04;;;;;;;1.80;1.55;;;21.00;99.90;;;;;;5135151;27;20643;-44
2022/07/31 05:29:31;;;;;;;2.15;1.67;;;20.90;99.90;;;;;;5135399;27;20193;-44
2022/07/31 05:31:56;;;;;;;2.53;1.98;;;21.00;99.90;;;;;;5135135;27;20245;-44
2022/07/31 05:34:22;;;;;;;2.55;1.73;;;21.00;99.90;;;;;;5135210;27;20163;-44
2022/07/31 05:36:48;;;;;;;2.30;1.80;;;21.10;99.90;;;;;;5135131;27;20170;-43
2022/07/31 05:39:13;;;;;;;2.25;2.00;;;21.10;99.90;;;;;;5134909;27;20203;-44
2022/07/31 05:41:39;;;;;;;2.47;1.95;;;21.10;99.90;;;;;;5135336;27;20242;-44
2022/07/31 05:44:05;;;;;;;3.10;1.80;;;21.20;99.90;;;;;;5135304;27;20623;-44
2022/07/31 05:46:31;;;;;;;3.38;1.75;;;21.40;99.90;;;;;;5134350;27;20173;-44
2022/07/31 05:48:57;;;;;;;2.60;1.95;;;21.50;99.90;;;;;;5135135;27;20164;-44
2022/07/31 05:51:22;;;;;;;3.88;1.80;;;21.50;99.90;;;;;;5134783;27;20160;-44
2022/07/31 05:53:48;;;;;;;1.77;1.63;;;21.50;99.90;;;;;;5135029;27;20243;-44
2022/07/31 05:56:14;;;;;;;4.10;1.90;;;21.50;99.90;;;;;;5134887;27;20696;-44
2022/07/31 05:58:39;;;;;;;3.42;1.88;;;21.50;99.90;;;;;;5134911;27;20618;-44
2022/07/31 06:01:05;;;;;;;2.20;2.00;;;21.50;99.90;;;;;;5135261;27;20169;-44
2022/07/31 06:03:34;;;;;;;2.65;1.70;;;21.50;99.90;;;;;;5134585;27;20182;-44
2022/07/31 06:06:01;;;;;;;4.63;2.03;;;21.50;99.90;;;;;;5134699;27;20179;-44
2022/07/31 06:08:27;;;;;;;2.50;1.75;;;21.40;99.90;;;;;;5134672;27;20167;-44
2022/07/31 06:10:53;;;;;;;2.25;1.50;;;21.50;99.90;;;;;;5134465;27;20185;-44
2022/07/31 06:13:23;;;;;;;3.00;1.50;;;21.60;99.90;;;;;;5134354;27;20173;-44
2022/07/31 06:15:49;;;;;;;1.95;1.70;;;21.70;99.90;;;;;;5134285;27;20250;-45
2022/07/31 06:18:14;;;;;;;1.88;1.77;;;21.70;99.90;;;;;;5134300;27;20320;-44
2022/07/31 06:20:40;;;;;;;1.98;1.70;;;21.70;99.90;;;;;;5134200;27;20156;-44
2022/07/31 06:23:06;;;;;;;4.45;2.28;;;21.70;99.90;;;;;;5134419;27;20216;-44
2022/07/31 06:25:31;;;;;;;2.47;1.70;;;21.70;99.90;;;;;;5134075;27;20167;-44
2022/07/31 06:27:57;;;;;;;3.10;2.10;;;21.70;99.90;;;;;;5134056;27;20608;-44
2022/07/31 06:30:22;;;;;;;4.13;1.50;;;21.60;99.90;;;;;;5134001;27;20221;-44
2022/07/31 06:32:48;;;;;;;6.78;2.15;;;21.60;99.90;;;;;;5134023;27;20530;-44
2022/07/31 06:35:14;;;;;;;1.90;1.70;;;21.60;99.90;;;;;;5134166;27;20214;-44
2022/07/31 06:37:39;;;;;;;1.98;1.88;;;21.50;99.90;;;;;;5133877;27;20638;-46
2022/07/31 06:40:05;;;;;;;4.22;1.88;;;21.50;99.90;;;;;;5134308;27;20233;-44
2022/07/31 06:42:31;;;;;;;3.97;2.15;;;21.50;99.90;;;;;;5133782;27;20152;-44
2022/07/31 06:44:56;;;;;;;2.92;2.08;;;21.40;99.90;;;;;;5133836;27;20687;-44
2022/07/31 06:47:24;;;;;;;2.08;1.85;;;21.50;99.90;;;;;;5133704;27;20163;-44
2022/07/31 06:49:49;;;;;;;3.30;2.20;;;21.40;99.90;;;;;;5133638;27;20246;-44
2022/07/31 06:52:16;;;;;;;2.45;2.25;;;21.40;99.90;;;;;;5133255;27;20250;-44
2022/07/31 06:54:42;;;;;;;3.83;1.92;;;21.40;99.90;;;;;;5133697;27;20569;-45
2022/07/31 06:57:09;;;;;;;3.25;1.90;;;21.40;99.90;;;;;;5115815;27;20159;-44
2022/07/31 06:59:34;;;;;;;2.17;1.98;;;21.40;99.90;;;;;;5133906;27;20192;-45
2022/07/31 07:02:00;;;;;;;2.65;2.00;;;21.40;99.90;;;;;;5133513;27;20194;-44
2022/07/31 07:04:25;;;;;;;1.95;1.75;;;21.40;99.90;;;;;;5133401;27;20575;-44
2022/07/31 07:06:51;;;;;;;3.00;2.05;;;21.40;99.90;;;;;;5133324;27;20199;-44
2022/07/31 07:09:16;;;;;;;2.17;1.40;;;21.30;99.90;;;;;;5132874;27;20534;-44
2022/07/31 07:11:42;;;;;;;2.28;1.60;;;21.30;99.90;;;;;;5132714;27;20252;-52
2022/07/31 07:14:08;;;;;;;2.20;1.55;;;21.20;99.90;;;;;;5133382;27;20160;-53
2022/07/31 07:16:33;;;;;;;2.53;1.80;;;21.20;99.90;;;;;;5133160;27;20168;-51
2022/07/31 07:18:59;;;;;;;1.52;1.40;;;21.20;99.90;;;;;;5133086;27;20206;-45
2022/07/31 07:21:25;;;;;;;2.22;1.55;;;21.10;99.90;;;;;;5133245;27;20168;-46
2022/07/31 07:23:50;;;;;;;3.40;1.90;;;21.20;99.90;;;;;;5133439;27;20175;-46
2022/07/31 07:26:16;;;;;;;3.53;1.52;;;21.30;99.90;;;;;;5133128;27;20164;-52
2022/07/31 07:28:41;;;;;;;2.58;2.00;;;21.30;99.90;;;;;;5133327;27;20164;-52
2022/07/31 07:31:07;;;;;;;2.25;1.80;;;21.20;99.90;;;;;;5133312;27;20155;-52
2022/07/31 07:33:33;;;;;;;1.80;1.70;;;21.20;99.90;;;;;;5132733;27;20527;-52
2022/07/31 07:35:58;;;;;;;3.15;1.80;;;21.30;99.90;;;;;;5132955;27;20980;-52
2022/07/31 07:38:24;;;;;;;3.55;2.05;;;21.50;99.90;;;;;;5132610;27;20677;-52
2022/07/31 07:40:50;;;;;;;1.90;1.70;;;21.60;99.90;;;;;;5132787;27;20172;-51
2022/07/31 07:43:16;;;;;;;1.63;1.52;;;21.50;99.90;;;;;;5133249;27;20692;-45
2022/07/31 07:45:42;;;;;;;3.05;1.85;;;21.50;99.90;;;;;;5132702;27;20172;-44
2022/07/31 07:48:08;;;;;;;3.30;1.80;;;21.50;99.90;;;;;;5133067;28;20160;-44
2022/07/31 07:50:34;;;;;;;4.32;2.05;;;21.50;99.90;;;;;;5132861;28;20167;-44
2022/07/31 07:52:59;;;;;;;3.03;1.80;;;21.70;99.90;;;;;;5132655;27;20499;-47
2022/07/31 07:55:25;;;;;;;2.13;1.80;;;21.60;99.90;;;;;;5133010;27;20164;-44
2022/07/31 07:57:51;;;;;;;1.80;1.70;;;21.60;99.90;;;;;;5132836;27;20236;-45
2022/07/31 08:00:17;;;;;;;1.65;1.55;;;21.60;99.90;;;;;;5132546;27;20694;-50
2022/07/31 08:02:43;;;;;;;1.90;1.77;;;21.70;99.90;;;;;;5132318;27;20159;-47
2022/07/31 08:05:09;;;;;;;2.47;1.65;;;21.80;99.90;;;;;;5133012;27;20168;-51
2022/07/31 08:07:38;;;;;;;1.98;1.70;;;21.90;99.90;;;;;;5132950;28;20163;-50
2022/07/31 08:10:05;;;;;;;2.55;1.80;;;22.30;99.90;;;;;;5135210;27;20200;-50
2022/07/31 08:12:30;;;;;;;2.15;1.85;;;23.00;99.90;;;;;;5136277;27;20211;-51
2022/07/31 08:14:56;;;;;;;2.58;1.63;;;23.30;99.90;;;;;;5136727;27;20160;-51
2022/07/31 08:17:21;;;;;;;1.83;1.63;;;23.30;99.90;;;;;;5136434;27;20179;-50
2022/07/31 08:19:47;;;;;;;2.10;1.90;;;23.10;99.90;;;;;;5136315;27;20274;-47
2022/07/31 08:22:13;;;;;;;2.65;1.67;;;23.10;99.90;;;;;;5136776;27;20258;-48
2022/07/31 08:24:39;;;;;;;2.95;1.50;;;23.10;99.90;;;;;;5136811;27;20164;-46
2022/07/31 08:27:23;;;;;;;3.65;1.90;;;23.50;99.90;;;;;;5136532;27;20184;-46
2022/07/31 08:29:53;;;;;;;2.05;1.85;;;23.70;99.90;;;;;;5136364;27;20193;-46
2022/07/31 08:32:19;;;;;;;3.13;1.77;;;23.90;99.90;;;;;;5136611;27;20168;-48
2022/07/31 08:34:45;;;;;;;2.67;1.75;;;23.80;99.90;;;;;;5136306;27;20167;-46
2022/07/31 08:37:11;;;;;;;3.90;2.33;;;24.10;99.90;;;;;;5136286;27;20160;-50
2022/07/31 08:39:37;;;;;;;3.70;1.92;;;23.90;99.90;;;;;;5136408;27;20689;-46
2022/07/31 08:42:04;;;;;;;3.15;1.88;;;23.70;99.90;;;;;;5136100;27;20161;-46
2022/07/31 08:44:30;;;;;;;2.97;1.70;;;23.70;99.90;;;;;;5136440;27;20174;-49
2022/07/31 08:46:56;;;;;;;6.60;2.17;;;23.50;99.90;;;;;;5136274;27;20183;-47
2022/07/31 08:49:25;;;;;;;2.75;1.83;;;24.00;99.90;;;;;;5135854;27;20159;-45
2022/07/31 08:51:52;;;;;;;2.60;1.77;;;24.10;99.90;;;;;;5135801;27;20236;-47
2022/07/31 08:54:19;;;;;;;2.28;1.60;;;23.80;99.90;;;;;;5135690;27;20251;-49
2022/07/31 08:56:45;;;;;;;3.00;1.80;;;23.50;99.90;;;;;;5135907;27;20243;-51
2022/07/31 08:59:11;;;;;;;1.73;1.63;;;23.70;99.90;;;;;;5136075;27;20291;-45
2022/07/31 09:01:37;;;;;;;2.78;1.80;;;23.80;99.90;;;;;;5136127;27;20191;-46
2022/07/31 09:04:03;;;;;;;2.53;1.83;;;23.60;99.90;;;;;;5135515;27;20258;-45
2022/07/31 09:06:29;;;;;;;1.88;1.70;;;23.80;99.90;;;;;;5135266;27;20760;-45
2022/07/31 09:08:55;;;;;;;2.13;1.88;;;23.80;99.90;;;;;;5135651;27;20262;-49
2022/07/31 09:11:22;;;;;;;2.00;1.80;;;23.90;99.90;;;;;;5135320;27;20192;-46
2022/07/31 09:13:55;;;;;;;2.65;1.70;;;23.90;99.90;;;;;;5135468;27;20171;-43
2022/07/31 09:16:21;;;;;;;2.42;1.63;;;24.20;99.90;;;;;;5135536;27;20167;-45
2022/07/31 09:19:04;;;;;;;1.73;1.33;;;24.40;99.90;;;;;;5135006;27;20199;-45
2022/07/31 09:21:43;;;;;;;3.90;1.40;;;24.80;99.90;;;;;;5134200;27;20277;-43
2022/07/31 09:24:11;;;;;;;2.17;1.90;;;24.80;99.90;;;;;;5095627;28;20543;-46
2022/07/31 09:26:39;;;;;;;2.35;1.70;;;24.60;99.90;;;;;;5148947;27;20254;-45
2022/07/31 09:29:11;;;;;;;1.60;1.50;;;24.40;99.90;;;;;;5136215;27;20182;-44
2022/07/31 09:31:37;;;;;;;1.65;1.55;;;24.40;99.90;;;;;;5154665;27;20162;-46
2022/07/31 09:34:04;;;;;;;3.67;1.50;;;24.50;99.90;;;;;;5154173;27;20245;-44
2022/07/31 09:36:30;;;;;;;1.52;1.42;;;24.70;99.90;;;;;;5154203;27;20550;-51
2022/07/31 09:38:56;;;;;;;1.30;1.20;;;24.70;99.90;;;;;;5154217;27;20202;-45
2022/07/31 09:41:22;;;;;;;1.70;1.60;;;24.90;99.90;;;;;;5154611;27;20163;-46
2022/07/31 09:44:02;;;;;;;3.70;1.55;;;25.20;99.90;;;;;;5154246;27;20192;-47
2022/07/31 09:46:47;;;;;;;1.80;1.70;;;24.70;99.90;;;;;;5154206;27;20167;-46
2022/07/31 09:49:13;;;;;;;1.60;1.50;;;25.20;99.90;;;;;;5154489;27;20178;-42
2022/07/31 09:51:43;;;;;;;1.58;1.48;;;25.20;99.90;;;;;;5154451;27;20159;-44
2022/07/31 09:54:22;;;;;;;2.13;1.40;;;25.30;99.90;;;;;;5154465;27;20178;-44
2022/07/31 09:56:49;;;;;;;2.42;1.60;;;25.30;99.90;;;;;;5154240;27;20167;-46
2022/07/31 09:59:15;;;;;;;2.20;1.65;;;25.30;99.90;;;;;;5153704;27;20349;-47
2022/07/31 10:01:41;;;;;;;1.50;1.40;;;25.70;99.90;;;;;;5153808;27;20163;-46
2022/07/31 10:04:09;;;;;;;1.38;1.27;;;25.70;99.90;;;;;;5135633;27;20178;-46
2022/07/31 10:06:35;;;;;;;2.20;1.48;;;26.00;99.90;;;;;;5153979;27;20197;-50
2022/07/31 10:09:03;;;;;;;1.65;1.30;;;25.60;99.90;;;;;;5153728;27;20163;-44
2022/07/31 10:11:31;;;;;;;1.67;1.55;;;25.30;99.90;;;;;;5146603;27;20592;-55
2022/07/31 10:14:01;;;;;;;1.58;1.40;;;25.40;99.90;;;;;;5122133;27;20266;-45
2022/07/31 10:16:32;;;;;;;2.00;1.80;;;25.30;99.90;;;;;;5123200;27;20174;-44
2022/07/31 10:19:10;;;;;;;4.32;1.60;;;25.20;99.90;;;;;;5126761;27;20199;-45
2022/07/31 10:21:42;;;;;;;3.45;1.42;;;25.20;99.90;;;;;;5133502;27;20167;-45
2022/07/31 10:24:11;;;;;;;3.35;1.50;;;25.40;99.90;;;;;;5133363;27;20163;-46
2022/07/31 10:26:36;;;;;;;1.40;1.23;;;25.60;99.90;;;;;;5132944;27;20661;-45
2022/07/31 10:29:02;;;;;;;2.13;1.60;;;25.50;99.90;;;;;;5132653;27;20167;-44
2022/07/31 10:31:30;;;;;;;1.75;1.30;;;25.60;99.90;;;;;;5132121;27;20680;-47
2022/07/31 10:33:56;;;;;;;4.15;1.60;;;25.90;99.90;;;;;;5132618;27;20605;-48
2022/07/31 10:36:29;;;;;;;1.60;1.50;;;25.80;99.90;;;;;;5132243;27;20195;-53
2022/07/31 10:39:01;;;;;;;1.27;1.25;;;26.00;99.90;;;;;;5132664;27;20604;-53
2022/07/31 10:41:45;;;;;;;1.75;1.50;;;26.30;99.90;;;;;;5132533;27;20255;-51
2022/07/31 10:44:17;;;;;;;1.83;1.33;;;26.40;99.90;;;;;;5132325;27;20242;-54
2022/07/31 10:46:42;;;;;;;1.90;1.55;;;26.10;99.90;;;;;;5132349;27;20619;-52
2022/07/31 10:49:08;;;;;;;1.90;1.77;;;26.40;99.90;;;;;;5132613;27;20163;-51
2022/07/31 10:51:44;;;;;;;1.80;1.50;;;26.30;99.90;;;;;;5132208;27;20170;-51
2022/07/31 10:54:10;;;;;;;1.60;1.50;;;26.40;99.90;;;;;;5131146;27;20171;-53
2022/07/31 10:56:46;;;;;;;1.58;1.42;;;26.70;99.90;;;;;;5132176;27;20524;-48
2022/07/31 10:59:12;;;;;;;2.67;1.40;;;26.90;99.90;;;;;;5132068;27;20206;-52
2022/07/31 11:01:49;;;;;;;2.05;1.70;;;27.30;99.90;;;;;;5113065;27;20530;-46
2022/07/31 11:04:30;;;;;;;1.60;1.50;;;27.10;99.90;;;;;;5131185;27;20178;-50
2022/07/31 11:06:57;;;;;;;1.98;1.60;;;27.40;99.90;;;;;;5131635;27;20167;-47
2022/07/31 11:09:23;;;;;;;1.80;1.50;;;27.20;99.90;;;;;;5130710;27;20156;-45
2022/07/31 11:11:50;;;;;;;1.60;1.48;;;27.30;99.90;;;;;;5131020;27;20245;-47
2022/07/31 11:14:16;;;;;;;1.90;1.42;;;27.40;99.90;;;;;;5131816;27;20171;-45
2022/07/31 11:16:51;;;;;;;1.98;1.42;;;27.40;99.90;;;;;;5131787;27;20171;-49
2022/07/31 11:19:17;;;;;;;1.83;1.42;;;27.40;99.90;;;;;;5129968;27;20233;-45
2022/07/31 11:21:43;;;;;;;5.38;1.92;;;27.50;99.90;;;;;;5131783;27;20203;-50
2022/07/31 11:24:18;;;;;;;2.85;1.80;;;27.60;99.90;;;;;;5132323;27;20256;-44
2022/07/31 11:26:56;;;;;;;3.63;1.58;;;27.20;99.90;;;;;;5131343;27;20186;-47
2022/07/31 11:29:33;;;;;;;2.10;1.88;;;27.40;99.90;;;;;;5131914;27;20282;-46
2022/07/31 11:32:05;;;;;;;2.10;1.77;;;27.50;99.90;;;;;;5114453;27;20570;-47
2022/07/31 11:34:46;;;;;;;1.75;1.65;;;27.80;99.90;;;;;;5113170;27;20175;-45
2022/07/31 11:37:21;;;;;;;1.70;1.60;;;27.90;99.90;;;;;;5131749;27;20170;-46
2022/07/31 11:39:47;;;;;;;1.95;1.60;;;27.70;99.90;;;;;;5131397;27;20697;-46
2022/07/31 11:42:13;;;;;;;2.75;1.90;;;27.60;99.90;;;;;;5131799;27;20171;-49
2022/07/31 11:44:39;;;;;;;3.97;1.92;;;27.60;99.90;;;;;;5130725;27;20246;-46
2022/07/31 11:47:05;;;;;;;3.58;1.90;;;27.40;99.90;;;;;;5131131;27;20170;-45
2022/07/31 11:49:34;;;;;;;2.97;1.80;;;27.60;99.90;;;;;;5131913;27;20167;-44
2022/07/31 11:52:00;;;;;;;2.30;1.88;;;28.00;99.90;;;;;;5131244;27;20167;-45
2022/07/31 11:54:26;;;;;;;2.78;1.60;;;28.10;99.90;;;;;;5132806;27;20240;-44
2022/07/31 11:56:55;;;;;;;2.75;1.90;;;28.10;99.90;;;;;;5132504;27;20638;-44
2022/07/31 11:59:32;;;;;;;4.35;1.80;;;27.80;99.90;;;;;;5132413;27;20281;-44
2022/07/31 12:02:09;;;;;;;1.83;1.73;;;28.00;99.90;;;;;;5132483;27;20163;-43
2022/07/31 12:04:36;;;;;;;1.92;1.83;;;27.80;99.90;;;;;;5132495;28;20260;-44
2022/07/31 12:07:03;;;;;;;1.80;1.70;;;28.10;99.90;;;;;;5132605;27;20167;-45
2022/07/31 12:09:30;;;;;;;2.03;1.85;;;28.30;99.90;;;;;;5131689;28;20188;-44
2022/07/31 12:11:56;;;;;;;2.42;1.65;;;28.40;99.90;;;;;;5132384;27;20302;-44
2022/07/31 12:14:28;;;;;;;2.88;2.00;;;28.40;99.90;;;;;;5132503;27;20160;-45
2022/07/31 12:16:53;;;;;;;3.20;1.67;;;28.40;99.90;;;;;;5132606;27;20159;-45
2022/07/31 12:19:33;;;;;;;4.10;1.98;;;28.10;99.90;;;;;;5132324;27;20352;-44
2022/07/31 12:21:59;;;;;;;2.40;2.20;;;27.90;99.90;;;;;;5132309;27;20617;-44
2022/07/31 12:24:26;;;;;;;2.40;2.17;;;27.90;99.90;;;;;;5132401;27;20502;-47
2022/07/31 12:26:54;;;;;;;2.63;2.00;;;27.70;99.90;;;;;;5132472;27;20631;-44
2022/07/31 12:29:29;;;;;;;3.55;2.45;;;27.80;99.90;;;;;;5132507;27;20172;-47
2022/07/31 12:31:57;;;;;;;2.22;2.00;;;27.90;99.90;;;;;;5132505;27;20175;-44
2022/07/31 12:34:33;;;;;;;2.17;1.98;;;27.80;99.90;;;;;;5132462;27;20263;-46
2022/07/31 12:37:05;;;;;;;3.85;2.15;;;27.90;99.90;;;;;;5132273;27;20194;-47
2022/07/31 12:39:35;;;;;;;2.63;2.10;;;28.00;99.90;;;;;;5131918;28;20287;-44
2022/07/31 12:42:00;;;;;;;2.28;2.00;;;28.20;99.90;;;;;;5132352;27;20171;-43
2022/07/31 12:44:27;;;;;;;2.08;1.90;;;28.20;99.90;;;;;;5131863;27;20164;-45
2022/07/31 12:46:53;;;;;;;2.58;2.00;;;28.30;99.90;;;;;;5132038;28;20176;-44
2022/07/31 12:49:19;;;;;;;3.10;2.05;;;28.60;99.90;;;;;;5131826;28;20541;-43
2022/07/31 12:51:44;;;;;;;2.58;2.40;;;28.20;99.90;;;;;;5132504;27;20670;-44